Latest METARs, TAFs and NOTAMs for SKCG


---------------------------------------------------------------------------
	(OBSERVATIONS)
SKCG 171400Z 35005KT 290V020 9999 FEW014 28/25 A2989=
SKCG 171300Z 36003KT 8000 FEW014 27/25 A2987 RMK HZ=
SKCG 171200Z 03004KT 010V070 9999 BKN020 27/25 A2986=
---------------------------------------------------------------------------
	(TERMINAL AREA FORECAST)
SKCG 171100Z 1712/1812 01008KT 9999 SCT020
    TEMPO 1715/1722 34015KT
    TX31/1718Z TN25/1811Z=
---------------------------------------------------------------------------
	(NOTAMS)


SKCG A0058/19 STRIP RWY 01/19 WIP,SECT THR 19 EXER CTN. DLY BTN
    1100-2359 AND 0000-0300, 11 JAN 12:08 2019 UNTIL 30 MAR 03:00
    2019. CREATED: 11 JAN 12:10 2019

SKCG A0213/19 FREQ 127,65 MHZ ON TEST, DO NOT USE. 01 FEB 00:00
    2019 UNTIL 15 MAR 23:59 2019. CREATED: 30 JAN 04:09 2019

SKCG A0283/19 FEB 09 BTN 0715-0915 FEB 10,11 BTN 0615-0915 FEB
    12-17 BTN 0615-1000 FEB 18-28 BTN 0615-0915 MAR 01-19 BTN
    0615-0915 MAR 20-24 BTN 0615-1000 MAR 25 BTN 0615-0915 APR
    01-04 BTN 0615-1000 MAY 07-09 BTN 0615-1000 JUN 18-20,22,23,25-27
    BTN 0615-1000 JUL 16-18,23-25,27 BTN 0615-1000 AUG 15,17,18
    BTN 0615-1000 SEP 19-22 BTN 0615-1000 OCT 16-20 BTN 0615-1000
    NOV 14-17 BTN 0615-1000 DEC 17-20 BTN 0615-1000 RWY 01/19
    CLSD. 09 FEB 07:15 2019 UNTIL 20 DEC 10:00 2019. CREATED:
    09 FEB 04:58 2019

SKCG A2336/18 FIREFIGHTING AND RESCUE SER CHG TO CAT 8 REF. AIP
    SKCG AD2.6. MON,FRI BTN 0000-0030 TUE,SAT BTN 2130-2359 WED,THU,SUN
    0000-0030 Y 2130-2359, 05 DEC 21:30 2018 UNTIL PERM. CREATED:
    01 NOV 11:45 2018

SKCG A2405/18 AD LTD, NO AVBL FOR TRG REF AD 2 SKCG. DLY BTN
    1600-1900, 10 NOV 16:00 2018 UNTIL PERM. CREATED: 09 NOV
    23:00 2018

SKCG A2626/18 FREQ TWR 120,3 MHZ RPLC TEMPO BY FREQ 118,3 MHZ
    FREQ AUTORIZATIONS 118,3 MHZ RPLC TEMPO BY FREQ 120,3 MHZ.
    H24, 03 DEC 12:29 2018 UNTIL 03 MAR 23:59 2019 ESTIMATED.
    CREATED: 03 DEC 14:27 2018

SKCG A2796/18 MID AND RWY 01 TRANSMISSOMETER U/S. H24, 28 DEC
    13:10 2018 UNTIL 28 MAR 23:59 2019 ESTIMATED. CREATED: 28
    DEC 13:11 2018

SKCG A2997/09 FIRE FIGHTING AND RESCUE DOWNGRADED TO CAT 7 09
    DEC 20:30 UNTIL 10 DEC 23:00 ESTIMATED

---------------------------------------------------------------------------